NCAR-RAP Real-Time Weather Data

Output produced by METARs form (12 May 2021  10:53 UTC)
found at http://weather.rap.ucar.edu/surface/
 
KBUF 120954Z 27005KT 10SM FEW090 06/03 A3025 RMK AO2 SLP247 T00560028 $
KBUF 120854Z 26007KT 10SM SCT090 06/03 A3023 RMK AO2 SLP243 T00560028 53003 $
KBUF 120754Z 24008KT 10SM FEW040 BKN100 06/02 A3022 RMK AO2 SLP240 T00560017 $
KBUF 120654Z 24007KT 10SM SCT040 BKN100 06/02 A3022 RMK AO2 SLP240 T00560017 $
KBUF 120554Z 28007KT 10SM SCT040 BKN100 06/01 A3022 RMK AO2 SLP239 T00560011 10083 20056 50006 $
KBUF 120454Z 27008KT 10SM BKN040 BKN100 06/01 A3023 RMK AO2 SLP241 T00610011 401060039 $
KBUF 120354Z 29009KT 10SM BKN045 BKN095 07/01 A3023 RMK AO2 SLP240 T00670006 $
KBUF 120254Z 28008KT 10SM BKN065 07/M01 A3020 RMK AO2 SLP232 T00671006 51015 $
KBUF 120154Z 28009KT 10SM SCT065 SCT120 07/M01 A3019 RMK AO2 SLP230 T00721011 $
KBUF 120054Z 26008KT 10SM FEW050 BKN065 BKN130 08/M01 A3017 RMK AO2 SLP221 T00831011 $
KBUF 112354Z 28012G17KT 10SM FEW050 BKN065 08/M01 A3016 RMK AO2 SLP218 60004 T00831011 10100 20056 52013 $
KBUF 112254Z 30014KT 10SM FEW035 BKN050 BKN060 BKN150 09/M01 A3015 RMK AO2 PK WND 31026/2233 SLP214 T00891011 $
KBUF 112154Z 30013G19KT 10SM BKN050 BKN075 09/01 A3013 RMK AO2 SLP208 T00940011 $
KBUF 112054Z 23009KT 10SM BKN050 BKN070 BKN130 08/04 A3012 RMK AO2 WSHFT 1950 RAE40 SLP204 SHRA VC S-W P0002 60004 T00780039 50003 $
KBUF 112010Z COR 23010KT 10SM -RA BKN045 BKN070 07/03 A3013 RMK AO2 WSHFT 1950 P0001 T00720033 $
KBUF 111954Z 23013G17KT 4SM -RA BKN045 BKN070 06/02 A3013 RMK AO2 PK WND 22033/1917 SLP209 RAB34 P0002 T00560022 $
KBUF 111854Z 24018G24KT 10SM BKN050 BKN070 09/02 A3012 RMK AO2 PK WND 24027/1814 SLP203 SHRA DSNT N T00890017 $